sensor_id;sensor_type;location;lat;lon;timestamp;temperature;humidity
46438;DHT22;32137;48.728;9.142;2023-09-19T00:01:58;15.50;1.00
46438;DHT22;32137;48.728;9.142;2023-09-19T00:04:24;15.50;1.00
46438;DHT22;32137;48.728;9.142;2023-09-19T00:06:54;15.50;1.00
46438;DHT22;32137;48.728;9.142;2023-09-19T00:09:19;15.50;1.00
46438;DHT22;32137;48.728;9.142;2023-09-19T00:11:45;15.50;1.00
46438;DHT22;32137;48.728;9.142;2023-09-19T00:14:12;15.50;1.00
46438;DHT22;32137;48.728;9.142;2023-09-19T00:16:39;15.50;1.00
46438;DHT22;32137;48.728;9.142;2023-09-19T00:19:06;15.50;1.00
46438;DHT22;32137;48.728;9.142;2023-09-19T00:21:32;15.50;1.00
46438;DHT22;32137;48.728;9.142;2023-09-19T00:23:58;15.50;1.00
46438;DHT22;32137;48.728;9.142;2023-09-19T00:26:23;15.50;1.00
46438;DHT22;32137;48.728;9.142;2023-09-19T00:28:51;15.50;1.00
46438;DHT22;32137;48.728;9.142;2023-09-19T00:31:17;15.50;1.00
46438;DHT22;32137;48.728;9.142;2023-09-19T00:33:43;15.50;1.00
46438;DHT22;32137;48.728;9.142;2023-09-19T00:36:08;15.50;1.00
46438;DHT22;32137;48.728;9.142;2023-09-19T00:38:34;15.50;1.00
46438;DHT22;32137;48.728;9.142;2023-09-19T00:40:59;15.50;1.00
46438;DHT22;32137;48.728;9.142;2023-09-19T00:43:25;15.50;1.00
46438;DHT22;32137;48.728;9.142;2023-09-19T00:45:51;15.60;1.00
46438;DHT22;32137;48.728;9.142;2023-09-19T00:48:16;15.60;1.00
46438;DHT22;32137;48.728;9.142;2023-09-19T00:50:42;15.50;1.00
46438;DHT22;32137;48.728;9.142;2023-09-19T00:53:09;15.50;1.00
46438;DHT22;32137;48.728;9.142;2023-09-19T00:55:38;15.50;1.00
46438;DHT22;32137;48.728;9.142;2023-09-19T00:58:04;15.50;1.00
46438;DHT22;32137;48.728;9.142;2023-09-19T01:00:32;15.50;1.00
46438;DHT22;32137;48.728;9.142;2023-09-19T01:02:59;15.50;1.00
46438;DHT22;32137;48.728;9.142;2023-09-19T01:05:26;15.50;1.00
46438;DHT22;32137;48.728;9.142;2023-09-19T01:07:51;15.50;1.00
46438;DHT22;32137;48.728;9.142;2023-09-19T01:10:18;15.50;1.00
46438;DHT22;32137;48.728;9.142;2023-09-19T01:31:38;15.60;99.90
46438;DHT22;32137;48.728;9.142;2023-09-19T01:34:05;15.50;99.90
46438;DHT22;32137;48.728;9.142;2023-09-19T01:36:32;15.60;99.90
46438;DHT22;32137;48.728;9.142;2023-09-19T01:39:05;15.60;99.90
46438;DHT22;32137;48.728;9.142;2023-09-19T01:41:41;15.60;99.90
46438;DHT22;32137;48.728;9.142;2023-09-19T01:44:11;15.60;99.90
46438;DHT22;32137;48.728;9.142;2023-09-19T01:46:39;15.70;99.90
46438;DHT22;32137;48.728;9.142;2023-09-19T01:49:18;15.60;99.90
46438;DHT22;32137;48.728;9.142;2023-09-19T01:51:51;15.60;99.90
46438;DHT22;32137;48.728;9.142;2023-09-19T01:54:20;15.60;99.90
46438;DHT22;32137;48.728;9.142;2023-09-19T01:56:53;15.70;99.90
46438;DHT22;32137;48.728;9.142;2023-09-19T01:59:24;15.70;99.90
46438;DHT22;32137;48.728;9.142;2023-09-19T02:01:52;15.70;99.90
46438;DHT22;32137;48.728;9.142;2023-09-19T02:04:19;15.60;99.90
46438;DHT22;32137;48.728;9.142;2023-09-19T02:06:45;15.60;99.90
46438;DHT22;32137;48.728;9.142;2023-09-19T02:09:13;15.60;99.90
46438;DHT22;32137;48.728;9.142;2023-09-19T02:11:39;15.60;99.90
46438;DHT22;32137;48.728;9.142;2023-09-19T02:14:06;15.60;99.90
46438;DHT22;32137;48.728;9.142;2023-09-19T02:16:34;15.50;99.90
46438;DHT22;32137;48.728;9.142;2023-09-19T02:18:59;15.60;99.90
46438;DHT22;32137;48.728;9.142;2023-09-19T02:21:25;15.50;99.90
46438;DHT22;32137;48.728;9.142;2023-09-19T02:23:51;15.50;99.90
46438;DHT22;32137;48.728;9.142;2023-09-19T02:26:16;15.50;99.90
46438;DHT22;32137;48.728;9.142;2023-09-19T02:28:44;15.50;99.90
46438;DHT22;32137;48.728;9.142;2023-09-19T02:31:11;15.40;99.90
46438;DHT22;32137;48.728;9.142;2023-09-19T02:33:36;15.40;99.90
46438;DHT22;32137;48.728;9.142;2023-09-19T02:36:02;15.40;99.90
46438;DHT22;32137;48.728;9.142;2023-09-19T02:38:30;15.40;99.90
46438;DHT22;32137;48.728;9.142;2023-09-19T02:40:56;15.40;99.90
46438;DHT22;32137;48.728;9.142;2023-09-19T02:43:22;15.30;99.90
46438;DHT22;32137;48.728;9.142;2023-09-19T02:45:48;15.30;99.90
46438;DHT22;32137;48.728;9.142;2023-09-19T02:48:18;15.30;99.90
46438;DHT22;32137;48.728;9.142;2023-09-19T02:50:44;15.30;99.90
46438;DHT22;32137;48.728;9.142;2023-09-19T02:53:09;15.20;99.90
46438;DHT22;32137;48.728;9.142;2023-09-19T02:55:38;15.30;99.90
46438;DHT22;32137;48.728;9.142;2023-09-19T02:58:05;15.20;99.90
46438;DHT22;32137;48.728;9.142;2023-09-19T03:00:33;15.30;99.90
46438;DHT22;32137;48.728;9.142;2023-09-19T03:03:00;15.30;99.90
46438;DHT22;32137;48.728;9.142;2023-09-19T03:05:27;15.30;99.90
46438;DHT22;32137;48.728;9.142;2023-09-19T03:07:56;15.40;99.90
46438;DHT22;32137;48.728;9.142;2023-09-19T03:10:22;15.40;99.90
46438;DHT22;32137;48.728;9.142;2023-09-19T03:12:47;15.40;99.90
46438;DHT22;32137;48.728;9.142;2023-09-19T03:15:14;15.40;99.90
46438;DHT22;32137;48.728;9.142;2023-09-19T03:17:47;15.50;99.90
46438;DHT22;32137;48.728;9.142;2023-09-19T03:20:13;15.50;99.90
46438;DHT22;32137;48.728;9.142;2023-09-19T03:22:45;15.50;99.90
46438;DHT22;32137;48.728;9.142;2023-09-19T03:25:11;15.40;99.90
46438;DHT22;32137;48.728;9.142;2023-09-19T03:27:37;15.50;99.90
46438;DHT22;32137;48.728;9.142;2023-09-19T03:30:03;15.50;99.90
46438;DHT22;32137;48.728;9.142;2023-09-19T03:32:34;15.40;99.90
46438;DHT22;32137;48.728;9.142;2023-09-19T03:35:00;15.40;99.90
46438;DHT22;32137;48.728;9.142;2023-09-19T03:37:25;15.40;99.90
46438;DHT22;32137;48.728;9.142;2023-09-19T03:39:51;15.40;99.90
46438;DHT22;32137;48.728;9.142;2023-09-19T03:42:17;15.50;99.90
46438;DHT22;32137;48.728;9.142;2023-09-19T03:44:42;15.50;99.90
46438;DHT22;32137;48.728;9.142;2023-09-19T03:47:08;15.50;99.90
46438;DHT22;32137;48.728;9.142;2023-09-19T03:49:33;15.50;99.90
46438;DHT22;32137;48.728;9.142;2023-09-19T03:51:59;15.50;99.90
46438;DHT22;32137;48.728;9.142;2023-09-19T03:54:24;15.50;99.90
46438;DHT22;32137;48.728;9.142;2023-09-19T03:56:50;15.50;99.90
46438;DHT22;32137;48.728;9.142;2023-09-19T03:59:15;15.50;99.90
46438;DHT22;32137;48.728;9.142;2023-09-19T04:01:41;15.50;99.90
46438;DHT22;32137;48.728;9.142;2023-09-19T04:04:07;15.50;99.90
46438;DHT22;32137;48.728;9.142;2023-09-19T04:06:35;15.50;99.90
46438;DHT22;32137;48.728;9.142;2023-09-19T04:09:04;15.50;99.90
46438;DHT22;32137;48.728;9.142;2023-09-19T04:11:32;15.50;99.90
46438;DHT22;32137;48.728;9.142;2023-09-19T04:13:58;15.40;99.90
46438;DHT22;32137;48.728;9.142;2023-09-19T04:16:23;15.40;99.90
46438;DHT22;32137;48.728;9.142;2023-09-19T04:18:49;15.40;99.90
46438;DHT22;32137;48.728;9.142;2023-09-19T04:21:14;15.40;99.90
46438;DHT22;32137;48.728;9.142;2023-09-19T04:23:40;15.40;99.90
46438;DHT22;32137;48.728;9.142;2023-09-19T04:26:05;15.40;99.90
46438;DHT22;32137;48.728;9.142;2023-09-19T04:28:31;15.40;99.90
46438;DHT22;32137;48.728;9.142;2023-09-19T04:30:57;15.40;99.90
46438;DHT22;32137;48.728;9.142;2023-09-19T04:33:24;15.40;99.90
46438;DHT22;32137;48.728;9.142;2023-09-19T04:35:50;15.40;99.90
46438;DHT22;32137;48.728;9.142;2023-09-19T04:38:17;15.40;99.90
46438;DHT22;32137;48.728;9.142;2023-09-19T04:40:42;15.40;99.90
46438;DHT22;32137;48.728;9.142;2023-09-19T04:43:08;15.40;99.90
46438;DHT22;32137;48.728;9.142;2023-09-19T04:45:33;15.50;99.90
46438;DHT22;32137;48.728;9.142;2023-09-19T04:47:59;15.50;99.90
46438;DHT22;32137;48.728;9.142;2023-09-19T04:50:25;15.50;99.90
46438;DHT22;32137;48.728;9.142;2023-09-19T04:52:52;15.50;99.90
46438;DHT22;32137;48.728;9.142;2023-09-19T04:55:19;15.50;99.90
46438;DHT22;32137;48.728;9.142;2023-09-19T04:57:48;15.50;99.90
46438;DHT22;32137;48.728;9.142;2023-09-19T05:00:15;15.50;99.90
46438;DHT22;32137;48.728;9.142;2023-09-19T05:02:42;15.50;99.90
46438;DHT22;32137;48.728;9.142;2023-09-19T05:05:08;15.60;99.90
46438;DHT22;32137;48.728;9.142;2023-09-19T05:07:35;15.50;99.90
46438;DHT22;32137;48.728;9.142;2023-09-19T05:10:04;15.50;1.00
46438;DHT22;32137;48.728;9.142;2023-09-19T05:12:33;15.50;1.00
46438;DHT22;32137;48.728;9.142;2023-09-19T05:14:59;15.50;99.90
46438;DHT22;32137;48.728;9.142;2023-09-19T05:17:26;15.40;99.90
46438;DHT22;32137;48.728;9.142;2023-09-19T05:19:52;15.30;99.90
46438;DHT22;32137;48.728;9.142;2023-09-19T05:22:18;15.30;99.90
46438;DHT22;32137;48.728;9.142;2023-09-19T05:24:43;15.20;99.90
46438;DHT22;32137;48.728;9.142;2023-09-19T05:27:10;15.40;99.90
46438;DHT22;32137;48.728;9.142;2023-09-19T05:29:35;15.20;99.90
46438;DHT22;32137;48.728;9.142;2023-09-19T05:32:01;15.20;99.90
46438;DHT22;32137;48.728;9.142;2023-09-19T05:34:26;15.10;99.90
46438;DHT22;32137;48.728;9.142;2023-09-19T05:36:55;15.20;99.90
46438;DHT22;32137;48.728;9.142;2023-09-19T05:39:20;15.10;99.90
46438;DHT22;32137;48.728;9.142;2023-09-19T05:41:46;15.10;99.90
46438;DHT22;32137;48.728;9.142;2023-09-19T05:44:13;15.10;99.90
46438;DHT22;32137;48.728;9.142;2023-09-19T05:46:39;15.30;99.90
46438;DHT22;32137;48.728;9.142;2023-09-19T05:49:04;15.40;99.90
46438;DHT22;32137;48.728;9.142;2023-09-19T05:51:30;15.10;99.90
46438;DHT22;32137;48.728;9.142;2023-09-19T05:53:56;15.30;99.90
46438;DHT22;32137;48.728;9.142;2023-09-19T05:56:21;15.20;99.90
46438;DHT22;32137;48.728;9.142;2023-09-19T05:58:47;15.30;99.90
46438;DHT22;32137;48.728;9.142;2023-09-19T06:01:12;15.40;99.90
46438;DHT22;32137;48.728;9.142;2023-09-19T06:03:38;15.20;99.90
46438;DHT22;32137;48.728;9.142;2023-09-19T06:06:04;15.40;99.90
46438;DHT22;32137;48.728;9.142;2023-09-19T06:08:32;15.40;99.90
46438;DHT22;32137;48.728;9.142;2023-09-19T06:10:57;15.30;99.90
46438;DHT22;32137;48.728;9.142;2023-09-19T06:13:23;15.20;99.90
46438;DHT22;32137;48.728;9.142;2023-09-19T06:15:52;15.10;99.90
46438;DHT22;32137;48.728;9.142;2023-09-19T06:18:17;15.10;99.90
46438;DHT22;32137;48.728;9.142;2023-09-19T06:20:46;14.90;99.90
46438;DHT22;32137;48.728;9.142;2023-09-19T06:23:11;14.90;99.90
46438;DHT22;32137;48.728;9.142;2023-09-19T06:25:37;14.90;99.90
46438;DHT22;32137;48.728;9.142;2023-09-19T06:28:02;15.10;99.90
46438;DHT22;32137;48.728;9.142;2023-09-19T06:30:30;15.10;99.90
46438;DHT22;32137;48.728;9.142;2023-09-19T06:32:59;15.10;99.90
46438;DHT22;32137;48.728;9.142;2023-09-19T06:35:25;15.00;99.90
46438;DHT22;32137;48.728;9.142;2023-09-19T06:37:51;15.10;99.90
46438;DHT22;32137;48.728;9.142;2023-09-19T06:40:18;14.90;99.90
46438;DHT22;32137;48.728;9.142;2023-09-19T06:42:45;15.10;99.90
46438;DHT22;32137;48.728;9.142;2023-09-19T06:45:14;14.80;99.90
46438;DHT22;32137;48.728;9.142;2023-09-19T06:47:45;15.00;99.90
46438;DHT22;32137;48.728;9.142;2023-09-19T06:50:14;15.00;99.90
46438;DHT22;32137;48.728;9.142;2023-09-19T06:52:43;15.10;99.90
46438;DHT22;32137;48.728;9.142;2023-09-19T06:55:21;14.90;99.90
46438;DHT22;32137;48.728;9.142;2023-09-19T06:57:49;14.80;99.90
46438;DHT22;32137;48.728;9.142;2023-09-19T07:00:17;14.80;99.90
46438;DHT22;32137;48.728;9.142;2023-09-19T07:03:01;14.80;99.90
46438;DHT22;32137;48.728;9.142;2023-09-19T07:08:12;15.10;99.90
46438;DHT22;32137;48.728;9.142;2023-09-19T07:10:39;15.00;99.90
46438;DHT22;32137;48.728;9.142;2023-09-19T07:13:16;14.70;99.90
46438;DHT22;32137;48.728;9.142;2023-09-19T07:15:47;15.00;99.90
46438;DHT22;32137;48.728;9.142;2023-09-19T07:18:16;14.90;99.90
46438;DHT22;32137;48.728;9.142;2023-09-19T07:20:42;14.80;99.90
46438;DHT22;32137;48.728;9.142;2023-09-19T07:23:17;14.80;99.90
46438;DHT22;32137;48.728;9.142;2023-09-19T07:25:44;14.60;99.90
46438;DHT22;32137;48.728;9.142;2023-09-19T07:28:09;14.60;99.90
46438;DHT22;32137;48.728;9.142;2023-09-19T07:30:37;14.90;99.90
46438;DHT22;32137;48.728;9.142;2023-09-19T07:33:04;14.70;99.90
46438;DHT22;32137;48.728;9.142;2023-09-19T07:35:30;14.80;99.90
46438;DHT22;32137;48.728;9.142;2023-09-19T07:37:56;14.90;99.90
46438;DHT22;32137;48.728;9.142;2023-09-19T07:40:23;14.80;99.90
46438;DHT22;32137;48.728;9.142;2023-09-19T07:42:52;15.00;99.90
46438;DHT22;32137;48.728;9.142;2023-09-19T07:45:17;14.90;99.90
46438;DHT22;32137;48.728;9.142;2023-09-19T07:47:44;14.90;99.90
46438;DHT22;32137;48.728;9.142;2023-09-19T07:50:09;14.70;99.90
46438;DHT22;32137;48.728;9.142;2023-09-19T07:52:36;14.80;99.90
46438;DHT22;32137;48.728;9.142;2023-09-19T07:55:05;14.80;99.90
46438;DHT22;32137;48.728;9.142;2023-09-19T07:57:34;14.80;99.90
46438;DHT22;32137;48.728;9.142;2023-09-19T08:00:00;14.80;99.90
46438;DHT22;32137;48.728;9.142;2023-09-19T08:02:26;15.00;99.90
46438;DHT22;32137;48.728;9.142;2023-09-19T08:04:53;15.10;99.90
46438;DHT22;32137;48.728;9.142;2023-09-19T08:07:19;15.00;99.90
46438;DHT22;32137;48.728;9.142;2023-09-19T08:09:44;15.10;99.90
46438;DHT22;32137;48.728;9.142;2023-09-19T08:12:11;15.10;99.90
46438;DHT22;32137;48.728;9.142;2023-09-19T08:14:37;15.00;99.90
46438;DHT22;32137;48.728;9.142;2023-09-19T08:17:06;15.00;99.90
46438;DHT22;32137;48.728;9.142;2023-09-19T08:19:33;15.00;99.90
46438;DHT22;32137;48.728;9.142;2023-09-19T08:21:59;15.10;99.90
46438;DHT22;32137;48.728;9.142;2023-09-19T08:24:25;15.20;99.90
46438;DHT22;32137;48.728;9.142;2023-09-19T08:26:54;15.10;99.90
46438;DHT22;32137;48.728;9.142;2023-09-19T08:29:20;15.10;99.90
46438;DHT22;32137;48.728;9.142;2023-09-19T08:31:45;15.20;99.90
46438;DHT22;32137;48.728;9.142;2023-09-19T08:34:13;15.40;99.90
46438;DHT22;32137;48.728;9.142;2023-09-19T08:36:39;15.20;99.90
46438;DHT22;32137;48.728;9.142;2023-09-19T08:39:06;15.40;99.90
46438;DHT22;32137;48.728;9.142;2023-09-19T08:41:32;15.40;99.90
46438;DHT22;32137;48.728;9.142;2023-09-19T08:44:00;15.50;99.90
46438;DHT22;32137;48.728;9.142;2023-09-19T08:46:27;15.50;99.90
46438;DHT22;32137;48.728;9.142;2023-09-19T08:49:03;15.50;99.90
46438;DHT22;32137;48.728;9.142;2023-09-19T08:51:31;15.50;99.90
46438;DHT22;32137;48.728;9.142;2023-09-19T08:54:03;15.50;99.90
46438;DHT22;32137;48.728;9.142;2023-09-19T08:56:32;15.60;99.90
46438;DHT22;32137;48.728;9.142;2023-09-19T08:59:04;15.80;99.90
46438;DHT22;32137;48.728;9.142;2023-09-19T09:01:31;15.70;99.90
46438;DHT22;32137;48.728;9.142;2023-09-19T09:03:57;15.80;99.90
46438;DHT22;32137;48.728;9.142;2023-09-19T09:06:24;16.00;99.90
46438;DHT22;32137;48.728;9.142;2023-09-19T09:08:52;15.90;99.90
46438;DHT22;32137;48.728;9.142;2023-09-19T09:11:18;16.10;99.90
46438;DHT22;32137;48.728;9.142;2023-09-19T09:13:44;16.00;77.30
46438;DHT22;32137;48.728;9.142;2023-09-19T09:16:10;16.00;26.30
46438;DHT22;32137;48.728;9.142;2023-09-19T09:18:36;16.00;16.80
46438;DHT22;32137;48.728;9.142;2023-09-19T09:21:02;15.90;1.00
46438;DHT22;32137;48.728;9.142;2023-09-19T09:23:29;16.00;1.00
46438;DHT22;32137;48.728;9.142;2023-09-19T09:25:55;16.10;1.00
46438;DHT22;32137;48.728;9.142;2023-09-19T09:28:32;16.00;1.00
46438;DHT22;32137;48.728;9.142;2023-09-19T09:30:59;16.20;1.00
46438;DHT22;32137;48.728;9.142;2023-09-19T09:33:25;16.20;1.00
46438;DHT22;32137;48.728;9.142;2023-09-19T09:36:00;16.30;1.00
46438;DHT22;32137;48.728;9.142;2023-09-19T09:38:28;16.20;99.90
46438;DHT22;32137;48.728;9.142;2023-09-19T09:40:57;16.20;99.90
46438;DHT22;32137;48.728;9.142;2023-09-19T09:43:32;16.20;99.90
46438;DHT22;32137;48.728;9.142;2023-09-19T09:46:17;16.10;99.90
46438;DHT22;32137;48.728;9.142;2023-09-19T09:48:47;16.10;99.90
46438;DHT22;32137;48.728;9.142;2023-09-19T09:51:32;16.30;99.90
46438;DHT22;32137;48.728;9.142;2023-09-19T09:56:51;16.50;99.90
46438;DHT22;32137;48.728;9.142;2023-09-19T09:59:17;16.60;99.90
46438;DHT22;32137;48.728;9.142;2023-09-19T10:01:47;16.60;43.40
46438;DHT22;32137;48.728;9.142;2023-09-19T10:04:26;16.60;99.90
46438;DHT22;32137;48.728;9.142;2023-09-19T10:06:54;16.50;99.90
46438;DHT22;32137;48.728;9.142;2023-09-19T10:09:19;16.60;99.90
46438;DHT22;32137;48.728;9.142;2023-09-19T10:11:46;16.60;1.00
46438;DHT22;32137;48.728;9.142;2023-09-19T10:14:16;16.50;1.00
46438;DHT22;32137;48.728;9.142;2023-09-19T10:16:48;16.50;1.00
46438;DHT22;32137;48.728;9.142;2023-09-19T10:19:29;16.60;1.00
46438;DHT22;32137;48.728;9.142;2023-09-19T10:21:55;16.70;99.90
46438;DHT22;32137;48.728;9.142;2023-09-19T10:24:22;16.80;1.00
46438;DHT22;32137;48.728;9.142;2023-09-19T10:26:48;16.80;99.90
46438;DHT22;32137;48.728;9.142;2023-09-19T10:29:16;16.90;99.90
46438;DHT22;32137;48.728;9.142;2023-09-19T10:31:43;16.90;99.90
46438;DHT22;32137;48.728;9.142;2023-09-19T10:34:14;16.90;99.90
46438;DHT22;32137;48.728;9.142;2023-09-19T10:36:39;17.10;99.90
46438;DHT22;32137;48.728;9.142;2023-09-19T10:39:10;17.40;99.90
46438;DHT22;32137;48.728;9.142;2023-09-19T10:41:37;17.50;99.90
46438;DHT22;32137;48.728;9.142;2023-09-19T10:44:03;17.60;35.10
46438;DHT22;32137;48.728;9.142;2023-09-19T10:46:31;17.70;10.00
46438;DHT22;32137;48.728;9.142;2023-09-19T10:49:00;17.70;1.00
46438;DHT22;32137;48.728;9.142;2023-09-19T10:51:28;17.70;1.00
46438;DHT22;32137;48.728;9.142;2023-09-19T10:54:08;17.80;5.10
46438;DHT22;32137;48.728;9.142;2023-09-19T10:56:39;17.80;1.00
46438;DHT22;32137;48.728;9.142;2023-09-19T11:01:47;18.00;42.10
46438;DHT22;32137;48.728;9.142;2023-09-19T11:04:20;18.30;1.00
46438;DHT22;32137;48.728;9.142;2023-09-19T11:06:58;18.40;1.00
46438;DHT22;32137;48.728;9.142;2023-09-19T11:09:24;18.50;42.70
46438;DHT22;32137;48.728;9.142;2023-09-19T11:11:51;18.70;1.00
46438;DHT22;32137;48.728;9.142;2023-09-19T11:22:22;18.90;1.00
46438;DHT22;32137;48.728;9.142;2023-09-19T11:24:47;19.00;99.90
46438;DHT22;32137;48.728;9.142;2023-09-19T11:27:13;19.20;99.90
46438;DHT22;32137;48.728;9.142;2023-09-19T11:29:39;19.40;99.90
46438;DHT22;32137;48.728;9.142;2023-09-19T11:32:06;19.50;99.90
46438;DHT22;32137;48.728;9.142;2023-09-19T11:34:41;19.40;99.90
46438;DHT22;32137;48.728;9.142;2023-09-19T11:39:39;19.50;1.00
46438;DHT22;32137;48.728;9.142;2023-09-19T11:42:50;19.80;1.00
46438;DHT22;32137;48.728;9.142;2023-09-19T11:44:52;19.90;99.90
46438;DHT22;32137;48.728;9.142;2023-09-19T11:47:21;20.00;1.00
46438;DHT22;32137;48.728;9.142;2023-09-19T11:49:48;20.20;99.90
46438;DHT22;32137;48.728;9.142;2023-09-19T11:52:16;20.40;99.90
46438;DHT22;32137;48.728;9.142;2023-09-19T11:54:47;20.60;99.90
46438;DHT22;32137;48.728;9.142;2023-09-19T11:57:22;20.80;99.90
46438;DHT22;32137;48.728;9.142;2023-09-19T11:59:47;21.30;99.90
46438;DHT22;32137;48.728;9.142;2023-09-19T12:02:14;21.60;97.90
46438;DHT22;32137;48.728;9.142;2023-09-19T12:04:44;21.40;99.90
46438;DHT22;32137;48.728;9.142;2023-09-19T12:07:14;21.10;99.90
46438;DHT22;32137;48.728;9.142;2023-09-19T12:09:42;20.80;99.90
46438;DHT22;32137;48.728;9.142;2023-09-19T12:12:24;20.90;99.90
46438;DHT22;32137;48.728;9.142;2023-09-19T12:14:52;22.30;99.90
46438;DHT22;32137;48.728;9.142;2023-09-19T12:17:18;22.30;99.90
46438;DHT22;32137;48.728;9.142;2023-09-19T12:19:51;22.10;99.90
46438;DHT22;32137;48.728;9.142;2023-09-19T12:22:17;21.80;99.90
46438;DHT22;32137;48.728;9.142;2023-09-19T12:24:44;24.70;1.00
46438;DHT22;32137;48.728;9.142;2023-09-19T12:27:10;25.50;99.90
46438;DHT22;32137;48.728;9.142;2023-09-19T12:32:08;30.00;33.70
46438;DHT22;32137;48.728;9.142;2023-09-19T12:34:34;31.70;1.00
46438;DHT22;32137;48.728;9.142;2023-09-19T12:37:03;32.50;1.00
46438;DHT22;32137;48.728;9.142;2023-09-19T12:39:31;32.30;1.00
46438;DHT22;32137;48.728;9.142;2023-09-19T12:41:56;32.70;1.00
46438;DHT22;32137;48.728;9.142;2023-09-19T12:44:22;33.30;1.00
46438;DHT22;32137;48.728;9.142;2023-09-19T12:46:50;33.40;1.00
46438;DHT22;32137;48.728;9.142;2023-09-19T12:49:19;33.10;1.00
46438;DHT22;32137;48.728;9.142;2023-09-19T12:51:48;32.20;1.00
46438;DHT22;32137;48.728;9.142;2023-09-19T12:54:13;31.30;1.00
46438;DHT22;32137;48.728;9.142;2023-09-19T12:56:43;30.50;1.00
46438;DHT22;32137;48.728;9.142;2023-09-19T12:59:14;30.30;1.00
46438;DHT22;32137;48.728;9.142;2023-09-19T13:01:40;30.90;1.00
46438;DHT22;32137;48.728;9.142;2023-09-19T13:04:11;31.40;1.00
46438;DHT22;32137;48.728;9.142;2023-09-19T13:06:51;30.80;1.00
46438;DHT22;32137;48.728;9.142;2023-09-19T13:09:17;29.60;1.00
46438;DHT22;32137;48.728;9.142;2023-09-19T13:11:43;29.60;2.60
46438;DHT22;32137;48.728;9.142;2023-09-19T13:14:23;29.90;1.00
46438;DHT22;32137;48.728;9.142;2023-09-19T13:16:56;29.80;1.00
46438;DHT22;32137;48.728;9.142;2023-09-19T13:25:05;29.50;1.00
46438;DHT22;32137;48.728;9.142;2023-09-19T13:27:32;29.20;1.00
46438;DHT22;32137;48.728;9.142;2023-09-19T13:29:58;29.00;1.00
46438;DHT22;32137;48.728;9.142;2023-09-19T13:32:23;28.80;1.00
46438;DHT22;32137;48.728;9.142;2023-09-19T13:34:49;28.40;5.80
46438;DHT22;32137;48.728;9.142;2023-09-19T13:37:14;27.90;20.30
46438;DHT22;32137;48.728;9.142;2023-09-19T13:39:41;27.60;27.10
46438;DHT22;32137;48.728;9.142;2023-09-19T13:42:13;27.30;22.50
46438;DHT22;32137;48.728;9.142;2023-09-19T13:44:38;27.20;99.90
46438;DHT22;32137;48.728;9.142;2023-09-19T13:47:04;27.10;26.50
46438;DHT22;32137;48.728;9.142;2023-09-19T13:49:35;26.80;52.90
46438;DHT22;32137;48.728;9.142;2023-09-19T13:52:00;26.60;93.00
46438;DHT22;32137;48.728;9.142;2023-09-19T13:54:28;26.50;43.60
46438;DHT22;32137;48.728;9.142;2023-09-19T13:56:54;26.30;51.20
46438;DHT22;32137;48.728;9.142;2023-09-19T13:59:19;26.30;84.60
46438;DHT22;32137;48.728;9.142;2023-09-19T14:01:51;26.30;64.50
46438;DHT22;32137;48.728;9.142;2023-09-19T14:04:19;26.10;92.00
46438;DHT22;32137;48.728;9.142;2023-09-19T14:06:46;25.90;99.90
46438;DHT22;32137;48.728;9.142;2023-09-19T14:09:11;26.00;78.40
46438;DHT22;32137;48.728;9.142;2023-09-19T14:11:39;26.00;86.60
46438;DHT22;32137;48.728;9.142;2023-09-19T14:14:04;25.90;94.20
46438;DHT22;32137;48.728;9.142;2023-09-19T14:16:30;25.70;72.70
46438;DHT22;32137;48.728;9.142;2023-09-19T14:18:56;25.40;96.80
46438;DHT22;32137;48.728;9.142;2023-09-19T14:21:22;25.30;99.90
46438;DHT22;32137;48.728;9.142;2023-09-19T14:23:48;25.00;99.90
46438;DHT22;32137;48.728;9.142;2023-09-19T14:26:14;24.80;99.90
46438;DHT22;32137;48.728;9.142;2023-09-19T14:28:41;24.80;99.90
46438;DHT22;32137;48.728;9.142;2023-09-19T14:31:10;24.70;99.90
46438;DHT22;32137;48.728;9.142;2023-09-19T14:33:35;24.70;99.90
46438;DHT22;32137;48.728;9.142;2023-09-19T14:36:05;24.70;99.90
46438;DHT22;32137;48.728;9.142;2023-09-19T14:38:32;24.70;99.90
46438;DHT22;32137;48.728;9.142;2023-09-19T14:40:59;24.70;99.90
46438;DHT22;32137;48.728;9.142;2023-09-19T14:43:25;24.60;99.90
46438;DHT22;32137;48.728;9.142;2023-09-19T14:45:50;24.60;96.80
46438;DHT22;32137;48.728;9.142;2023-09-19T14:48:16;24.60;99.90
46438;DHT22;32137;48.728;9.142;2023-09-19T14:50:42;24.60;93.20
46438;DHT22;32137;48.728;9.142;2023-09-19T14:53:09;24.70;99.90
46438;DHT22;32137;48.728;9.142;2023-09-19T14:55:36;24.60;99.90
46438;DHT22;32137;48.728;9.142;2023-09-19T14:58:02;24.60;99.90
46438;DHT22;32137;48.728;9.142;2023-09-19T15:00:28;24.60;99.60
46438;DHT22;32137;48.728;9.142;2023-09-19T15:02:53;24.50;59.60
46438;DHT22;32137;48.728;9.142;2023-09-19T15:05:21;24.40;76.60
46438;DHT22;32137;48.728;9.142;2023-09-19T15:07:46;24.40;92.90
46438;DHT22;32137;48.728;9.142;2023-09-19T15:10:12;24.20;86.50
46438;DHT22;32137;48.728;9.142;2023-09-19T15:12:38;24.10;90.10
46438;DHT22;32137;48.728;9.142;2023-09-19T15:15:05;23.90;99.90
46438;DHT22;32137;48.728;9.142;2023-09-19T15:17:33;23.80;99.90
46438;DHT22;32137;48.728;9.142;2023-09-19T15:19:59;23.70;99.90
46438;DHT22;32137;48.728;9.142;2023-09-19T15:22:24;23.60;99.90
46438;DHT22;32137;48.728;9.142;2023-09-19T15:24:50;23.50;99.90
46438;DHT22;32137;48.728;9.142;2023-09-19T15:27:17;23.40;99.90
46438;DHT22;32137;48.728;9.142;2023-09-19T15:29:45;23.40;99.90
46438;DHT22;32137;48.728;9.142;2023-09-19T15:32:11;23.40;99.90
46438;DHT22;32137;48.728;9.142;2023-09-19T15:34:36;23.40;99.90
46438;DHT22;32137;48.728;9.142;2023-09-19T15:37:02;23.30;99.90
46438;DHT22;32137;48.728;9.142;2023-09-19T15:39:29;23.20;99.90
46438;DHT22;32137;48.728;9.142;2023-09-19T15:41:58;23.20;99.90
46438;DHT22;32137;48.728;9.142;2023-09-19T15:44:24;23.10;99.90
46438;DHT22;32137;48.728;9.142;2023-09-19T15:46:52;23.00;99.90
46438;DHT22;32137;48.728;9.142;2023-09-19T15:49:17;23.00;99.90
46438;DHT22;32137;48.728;9.142;2023-09-19T15:51:42;23.00;99.90
46438;DHT22;32137;48.728;9.142;2023-09-19T15:54:12;22.90;99.90
46438;DHT22;32137;48.728;9.142;2023-09-19T15:56:39;22.90;99.90
46438;DHT22;32137;48.728;9.142;2023-09-19T15:59:06;22.90;99.90
46438;DHT22;32137;48.728;9.142;2023-09-19T16:01:32;22.80;99.90
46438;DHT22;32137;48.728;9.142;2023-09-19T16:03:57;22.80;99.90
46438;DHT22;32137;48.728;9.142;2023-09-19T16:06:26;22.70;99.90
46438;DHT22;32137;48.728;9.142;2023-09-19T16:08:55;22.60;99.90
46438;DHT22;32137;48.728;9.142;2023-09-19T16:11:21;22.60;99.90
46438;DHT22;32137;48.728;9.142;2023-09-19T16:13:47;22.50;99.90
46438;DHT22;32137;48.728;9.142;2023-09-19T16:16:13;22.50;99.90
46438;DHT22;32137;48.728;9.142;2023-09-19T16:18:47;22.50;99.90
46438;DHT22;32137;48.728;9.142;2023-09-19T16:21:23;22.50;99.90
46438;DHT22;32137;48.728;9.142;2023-09-19T16:23:49;22.50;99.90